Time;durP1;ratioP1;P1;durP2;ratioP2;P2;SDS_P1;SDS_P2;PMS_P1;PMS_P2;Temp;Humidity;BMP_temperature;BMP_pressure;BME280_temperature;BME280_humidity;BME280_pressure;Samples;Min_cycle;Max_cycle;Signal;HPM_P1;HPM_P2
2023/02/11 00:00:59;;;;;;;49.17;20.53;;;2.00;99.90;;;;;;4992581;28;20651;-70
2023/02/11 00:03:26;;;;;;;47.27;20.37;;;2.00;99.90;;;;;;4992412;28;20668;-68
2023/02/11 00:06:02;;;;;;;49.10;19.87;;;2.00;99.90;;;;;;4987812;28;20836;-68
2023/02/11 00:08:29;;;;;;;43.37;19.43;;;2.00;99.90;;;;;;4961249;28;20223;-71
2023/02/11 00:10:57;;;;;;;50.50;18.90;;;2.00;99.90;;;;;;4992530;28;20189;-70
2023/02/11 00:13:24;;;;;;;42.83;18.93;;;2.00;99.90;;;;;;4968264;28;20651;-68
2023/02/11 00:15:52;;;;;;;47.03;19.47;;;2.00;99.90;;;;;;4971358;28;20291;-69
2023/02/11 00:18:19;;;;;;;48.40;18.60;;;2.00;99.90;;;;;;4976430;28;20225;-67
2023/02/11 00:20:46;;;;;;;41.83;17.73;;;2.00;99.90;;;;;;4988762;28;20242;-69
2023/02/11 00:23:14;;;;;;;45.37;17.83;;;2.10;99.90;;;;;;4976646;28;20559;-71
2023/02/11 00:25:42;;;;;;;45.03;18.50;;;2.10;99.90;;;;;;4992303;28;20611;-69
2023/02/11 00:28:10;;;;;;;45.23;17.70;;;2.10;99.90;;;;;;4980627;28;20295;-68
2023/02/11 00:30:37;;;;;;;38.93;16.97;;;2.10;99.90;;;;;;4991924;28;20193;-70
2023/02/11 00:33:04;;;;;;;38.27;16.30;;;2.10;99.90;;;;;;4984166;28;20240;-68
2023/02/11 00:35:30;;;;;;;44.27;17.73;;;2.10;99.90;;;;;;4993125;28;20196;-69
2023/02/11 00:37:57;;;;;;;44.27;17.80;;;2.10;99.90;;;;;;4975802;28;20239;-69
2023/02/11 00:40:24;;;;;;;38.73;16.30;;;2.10;99.90;;;;;;4975838;28;20701;-70
2023/02/11 00:42:51;;;;;;;46.83;16.97;;;2.10;99.90;;;;;;4975789;28;20568;-71
2023/02/11 00:45:20;;;;;;;43.03;16.77;;;2.00;99.90;;;;;;4992003;28;20207;-70
2023/02/11 00:47:47;;;;;;;36.90;16.40;;;2.10;99.90;;;;;;4992055;28;20199;-68
2023/02/11 00:50:14;;;;;;;39.10;16.87;;;2.10;99.90;;;;;;4991956;28;20205;-69
2023/02/11 00:52:41;;;;;;;39.47;16.00;;;2.00;99.90;;;;;;4991522;28;20564;-69
2023/02/11 00:55:08;;;;;;;34.87;15.23;;;2.10;99.90;;;;;;4975327;28;20205;-70
2023/02/11 00:57:35;;;;;;;35.90;15.40;;;2.10;99.90;;;;;;4976079;28;20185;-70
2023/02/11 01:00:04;;;;;;;34.87;15.50;;;2.10;99.90;;;;;;4993178;28;20277;-70
2023/02/11 01:02:31;;;;;;;36.60;15.03;;;2.00;99.90;;;;;;4992136;28;20197;-69
2023/02/11 01:04:59;;;;;;;35.27;15.43;;;2.00;99.90;;;;;;4993214;28;20215;-70
2023/02/11 01:07:26;;;;;;;38.27;15.57;;;2.10;99.90;;;;;;4992625;28;20209;-71
2023/02/11 01:09:53;;;;;;;38.47;15.50;;;2.10;99.90;;;;;;4993219;28;20200;-73
2023/02/11 01:12:20;;;;;;;42.00;15.83;;;2.00;99.90;;;;;;4992859;28;20283;-70
2023/02/11 01:14:47;;;;;;;39.00;15.50;;;2.00;99.90;;;;;;4992826;28;20203;-70
2023/02/11 01:17:14;;;;;;;35.67;15.00;;;2.00;99.90;;;;;;4975481;28;20208;-69
2023/02/11 01:19:41;;;;;;;38.73;15.77;;;2.00;99.90;;;;;;4975222;28;20220;-71
2023/02/11 01:22:08;;;;;;;42.73;15.63;;;2.00;99.90;;;;;;4987202;28;20197;-70
2023/02/11 01:24:35;;;;;;;38.87;15.77;;;2.00;99.90;;;;;;4992808;28;20214;-70
2023/02/11 01:27:02;;;;;;;38.27;15.20;;;2.00;99.90;;;;;;4991725;28;20643;-68
2023/02/11 01:29:29;;;;;;;40.93;15.83;;;2.00;99.90;;;;;;4991667;28;20290;-69
2023/02/11 01:31:56;;;;;;;38.10;14.33;;;2.00;99.90;;;;;;4992703;28;20211;-69
2023/02/11 01:34:23;;;;;;;36.30;15.30;;;2.00;99.90;;;;;;4988034;28;20897;-71
2023/02/11 01:36:50;;;;;;;31.17;13.47;;;2.00;99.90;;;;;;4992730;28;20611;-69
2023/02/11 01:39:16;;;;;;;34.17;14.53;;;2.00;99.90;;;;;;4991295;28;20248;-70
2023/02/11 01:41:43;;;;;;;37.40;14.40;;;1.90;99.90;;;;;;4991346;28;20193;-68
2023/02/11 01:44:39;;;;;;;34.47;13.90;;;1.90;99.90;;;;;;4991324;28;20239;-69
2023/02/11 01:47:06;;;;;;;30.27;14.03;;;1.90;99.90;;;;;;4992751;28;20292;-69
2023/02/11 01:49:38;;;;;;;36.10;14.07;;;2.00;99.90;;;;;;4991378;28;20331;-69
2023/02/11 01:52:12;;;;;;;31.87;13.23;;;2.00;99.90;;;;;;4991550;28;20248;-69
2023/02/11 01:57:34;;;;;;;36.63;13.83;;;2.00;99.90;;;;;;4992295;28;20236;-68
2023/02/11 02:00:23;;;;;;;28.40;12.33;;;2.00;99.90;;;;;;4991255;28;20238;-69
2023/02/11 02:03:05;;;;;;;34.10;13.13;;;2.10;99.90;;;;;;4991519;28;20226;-69
2023/02/11 02:05:55;;;;;;;29.23;12.63;;;2.10;99.90;;;;;;4991218;28;20646;-69
2023/02/11 02:08:45;;;;;;;26.20;11.53;;;2.10;99.90;;;;;;4993902;28;20634;-69
2023/02/11 02:11:12;;;;;;;28.60;11.93;;;2.10;99.90;;;;;;4996249;28;20559;-68
2023/02/11 02:13:39;;;;;;;27.77;12.47;;;2.10;99.90;;;;;;4994886;28;20202;-69
2023/02/11 02:16:12;;;;;;;29.00;11.93;;;2.20;99.90;;;;;;4996090;28;20192;-69
2023/02/11 02:18:58;;;;;;;28.40;11.43;;;2.20;99.90;;;;;;4994685;28;20301;-70
2023/02/11 02:21:31;;;;;;;28.57;11.30;;;2.20;99.90;;;;;;5011862;28;20251;-68
2023/02/11 02:24:10;;;;;;;27.67;11.50;;;2.20;99.90;;;;;;5015557;28;20195;-69
2023/02/11 02:27:01;;;;;;;26.50;11.23;;;2.20;99.90;;;;;;4997875;28;20616;-69
2023/02/11 02:29:56;;;;;;;27.80;11.43;;;2.20;99.90;;;;;;4998221;28;20193;-68
2023/02/11 02:32:38;;;;;;;24.70;10.90;;;2.20;99.90;;;;;;4991784;28;20193;-69
2023/02/11 02:35:12;;;;;;;22.40;10.13;;;2.30;99.90;;;;;;4978102;28;20548;-68
2023/02/11 02:37:54;;;;;;;22.37;10.40;;;2.20;99.90;;;;;;4978063;28;20204;-67
2023/02/11 02:40:49;;;;;;;28.70;11.57;;;2.20;99.90;;;;;;4978152;28;20212;-69
2023/02/11 02:43:18;;;;;;;22.67;10.20;;;2.20;99.90;;;;;;4993472;28;20204;-70
2023/02/11 02:45:45;;;;;;;26.80;11.13;;;2.20;99.90;;;;;;4990751;28;20208;-70
2023/02/11 02:48:22;;;;;;;24.87;11.00;;;2.20;99.90;;;;;;4995527;28;20196;-70
2023/02/11 02:50:54;;;;;;;25.40;11.73;;;2.20;99.90;;;;;;4995490;28;20270;-69
2023/02/11 02:53:49;;;;;;;25.03;11.03;;;2.20;99.90;;;;;;4994347;28;20212;-69
2023/02/11 02:56:34;;;;;;;27.70;10.63;;;2.20;99.90;;;;;;4954079;29;20675;-70
2023/02/11 02:59:28;;;;;;;30.47;11.27;;;2.20;99.90;;;;;;4954339;28;20645;-69
2023/02/11 03:02:11;;;;;;;29.20;11.40;;;2.20;99.90;;;;;;4938318;29;20220;-71
2023/02/11 03:04:51;;;;;;;26.63;11.47;;;2.20;99.90;;;;;;4919744;29;20692;-70
2023/02/11 03:07:26;;;;;;;24.73;11.10;;;2.20;99.90;;;;;;4934325;29;20222;-70
2023/02/11 03:10:08;;;;;;;22.73;10.83;;;2.20;99.90;;;;;;4947986;29;20207;-69
2023/02/11 03:12:36;;;;;;;25.67;11.23;;;2.20;99.90;;;;;;4933385;29;20369;-65
2023/02/11 03:15:05;;;;;;;24.87;10.53;;;2.20;99.90;;;;;;4919008;29;20222;-66
2023/02/11 03:17:34;;;;;;;25.20;11.30;;;2.20;99.90;;;;;;4918568;29;20202;-64
2023/02/11 03:20:04;;;;;;;26.40;11.03;;;2.20;99.90;;;;;;4911060;29;20265;-65
2023/02/11 03:22:40;;;;;;;24.43;10.43;;;2.20;99.90;;;;;;4901877;29;20208;-66
2023/02/11 03:25:08;;;;;;;25.03;10.83;;;2.20;99.90;;;;;;4918549;29;20661;-68
2023/02/11 03:27:47;;;;;;;27.53;10.37;;;2.20;99.90;;;;;;4933816;29;20206;-68
2023/02/11 03:30:29;;;;;;;25.43;10.40;;;2.20;99.90;;;;;;4934489;29;20729;-68
2023/02/11 03:33:29;;;;;;;24.50;10.37;;;2.20;99.90;;;;;;4956151;28;20228;-69
2023/02/11 03:36:01;;;;;;;23.77;11.23;;;2.20;99.90;;;;;;4985419;28;20204;-68
2023/02/11 03:38:36;;;;;;;26.47;10.67;;;2.30;99.90;;;;;;4994575;28;20215;-69
2023/02/11 03:41:06;;;;;;;27.27;11.03;;;2.20;99.90;;;;;;4977390;28;20197;-69
2023/02/11 03:43:39;;;;;;;22.63;9.77;;;2.20;99.90;;;;;;4976820;28;20228;-68
2023/02/11 03:46:08;;;;;;;23.53;10.50;;;2.20;99.90;;;;;;4994187;28;20208;-69
2023/02/11 03:48:41;;;;;;;25.77;10.83;;;2.30;99.90;;;;;;4994419;28;20284;-68
2023/02/11 03:51:11;;;;;;;24.57;9.97;;;2.30;99.90;;;;;;4994431;28;20197;-68
2023/02/11 03:53:41;;;;;;;25.43;10.30;;;2.20;99.90;;;;;;4992981;28;20207;-68
2023/02/11 03:56:13;;;;;;;22.97;10.70;;;2.30;99.90;;;;;;4993256;28;20193;-70
2023/02/11 03:58:40;;;;;;;22.87;10.60;;;2.30;99.90;;;;;;4980677;28;20220;-69
2023/02/11 04:01:08;;;;;;;28.77;10.93;;;2.30;99.90;;;;;;4988628;28;20198;-70
2023/02/11 04:03:35;;;;;;;25.57;11.00;;;2.20;99.90;;;;;;4984961;28;20189;-70
2023/02/11 04:06:02;;;;;;;24.00;11.23;;;2.30;99.90;;;;;;4984391;28;20201;-70
2023/02/11 04:08:30;;;;;;;25.17;11.43;;;2.20;99.90;;;;;;4976593;28;20209;-69
2023/02/11 04:10:57;;;;;;;26.83;11.43;;;2.20;99.90;;;;;;4993798;28;20196;-70
2023/02/11 04:13:24;;;;;;;31.40;12.27;;;2.20;99.90;;;;;;4976430;28;20232;-70
2023/02/11 04:15:51;;;;;;;28.43;11.73;;;2.20;99.90;;;;;;4994238;28;20647;-70
2023/02/11 04:18:18;;;;;;;27.47;11.80;;;2.20;99.90;;;;;;4976171;28;20608;-70
2023/02/11 04:20:46;;;;;;;27.23;11.27;;;2.20;99.90;;;;;;4993646;28;20782;-71
2023/02/11 04:23:13;;;;;;;28.10;12.33;;;2.10;99.90;;;;;;4976178;28;20201;-70
2023/02/11 04:25:39;;;;;;;29.87;12.40;;;2.10;99.90;;;;;;4987492;28;20198;-70
2023/02/11 04:28:06;;;;;;;25.77;12.80;;;2.20;99.90;;;;;;4992330;28;20196;-70
2023/02/11 04:30:33;;;;;;;31.37;12.73;;;2.10;99.90;;;;;;4991629;28;20197;-69
2023/02/11 04:33:00;;;;;;;30.60;12.57;;;2.10;99.90;;;;;;4977007;28;20287;-71
2023/02/11 04:35:27;;;;;;;30.63;13.27;;;2.10;99.90;;;;;;4993320;28;20275;-70
2023/02/11 04:37:53;;;;;;;28.60;13.10;;;2.10;99.90;;;;;;4993581;28;20197;-70
2023/02/11 04:40:20;;;;;;;31.07;13.47;;;2.00;99.90;;;;;;4984720;28;20236;-70
2023/02/11 04:42:47;;;;;;;30.00;13.10;;;2.10;99.90;;;;;;4992201;28;20189;-71
2023/02/11 04:45:14;;;;;;;29.00;13.53;;;2.00;99.90;;;;;;4993165;28;20642;-70
2023/02/11 04:47:41;;;;;;;33.83;14.40;;;2.10;99.90;;;;;;4992002;28;20185;-70
2023/02/11 04:50:08;;;;;;;30.87;13.10;;;2.00;99.90;;;;;;4992078;28;20559;-70
2023/02/11 04:52:35;;;;;;;32.90;13.67;;;2.00;99.90;;;;;;4991971;28;20211;-70
2023/02/11 04:55:01;;;;;;;30.47;13.30;;;2.00;99.90;;;;;;4992137;28;20186;-70
2023/02/11 04:57:28;;;;;;;30.40;13.77;;;1.90;99.90;;;;;;4978029;28;20235;-70
2023/02/11 04:59:55;;;;;;;32.90;14.03;;;1.90;99.90;;;;;;4992830;28;20243;-70
2023/02/11 05:02:22;;;;;;;31.83;14.00;;;1.90;99.90;;;;;;4975593;28;20677;-70
2023/02/11 05:04:49;;;;;;;36.77;14.53;;;1.90;99.90;;;;;;4975849;28;20550;-70
2023/02/11 05:07:15;;;;;;;30.37;14.73;;;1.90;99.90;;;;;;4992843;28;20697;-70
2023/02/11 05:09:42;;;;;;;33.93;14.33;;;2.00;99.90;;;;;;4975947;28;20230;-70
2023/02/11 05:12:09;;;;;;;31.77;13.67;;;1.90;99.90;;;;;;4975592;28;20240;-71
2023/02/11 05:14:36;;;;;;;35.47;15.03;;;2.00;99.90;;;;;;4992466;28;20211;-70
2023/02/11 05:17:03;;;;;;;30.73;13.87;;;2.00;99.90;;;;;;4991524;28;20296;-70
2023/02/11 05:19:30;;;;;;;34.43;14.57;;;2.00;99.90;;;;;;4991637;28;20303;-70
2023/02/11 05:21:57;;;;;;;30.53;14.73;;;2.00;99.90;;;;;;4996803;28;20197;-71
2023/02/11 05:24:31;;;;;;;32.23;14.93;;;2.10;99.90;;;;;;4994798;28;20206;-70
2023/02/11 05:26:58;;;;;;;30.77;14.43;;;2.10;99.90;;;;;;5012531;28;20661;-70
2023/02/11 05:29:25;;;;;;;30.07;13.57;;;2.00;99.90;;;;;;5010137;28;20198;-71
2023/02/11 05:31:52;;;;;;;31.43;14.63;;;2.00;99.90;;;;;;5012063;28;20196;-71
2023/02/11 05:34:19;;;;;;;34.43;13.83;;;2.00;99.90;;;;;;4994968;28;20195;-71
2023/02/11 05:36:46;;;;;;;29.23;13.83;;;2.00;99.90;;;;;;5012272;28;20278;-70
2023/02/11 05:39:13;;;;;;;31.40;13.80;;;2.00;99.90;;;;;;4994537;28;20306;-72
2023/02/11 05:41:40;;;;;;;32.20;14.03;;;2.00;99.90;;;;;;4996587;28;20230;-71
2023/02/11 05:44:07;;;;;;;31.43;13.90;;;2.00;99.90;;;;;;4998390;28;20291;-70
2023/02/11 05:46:33;;;;;;;30.33;13.73;;;2.00;99.90;;;;;;4990136;28;20185;-70
2023/02/11 05:49:01;;;;;;;29.30;13.50;;;2.00;99.90;;;;;;4995262;28;20566;-70
2023/02/11 05:51:28;;;;;;;35.13;14.20;;;2.00;99.90;;;;;;4962958;28;20258;-70
2023/02/11 05:53:54;;;;;;;33.90;14.33;;;2.10;99.90;;;;;;4995231;28;20637;-70
2023/02/11 05:56:21;;;;;;;32.23;14.63;;;2.10;99.90;;;;;;4978879;28;20535;-71
2023/02/11 05:58:48;;;;;;;31.57;13.87;;;2.10;99.90;;;;;;4994988;28;20204;-70
2023/02/11 06:01:15;;;;;;;31.47;14.27;;;2.10;99.90;;;;;;4978572;28;20564;-71
2023/02/11 06:03:42;;;;;;;29.03;13.47;;;2.10;99.90;;;;;;4995186;28;20292;-71
2023/02/11 06:06:11;;;;;;;29.70;14.00;;;2.10;99.90;;;;;;4994734;28;20205;-70
2023/02/11 06:08:38;;;;;;;34.23;14.20;;;2.10;99.90;;;;;;4995171;28;20572;-71
2023/02/11 06:11:05;;;;;;;32.60;14.53;;;2.20;99.90;;;;;;4994843;28;20259;-70
2023/02/11 06:13:32;;;;;;;34.67;15.53;;;2.30;99.90;;;;;;4994678;28;20196;-71
2023/02/11 06:16:00;;;;;;;31.70;14.30;;;2.20;99.90;;;;;;4996046;28;20249;-70
2023/02/11 06:18:28;;;;;;;32.90;14.37;;;2.20;99.90;;;;;;4996350;28;20287;-70
2023/02/11 06:20:55;;;;;;;31.63;13.40;;;2.30;99.90;;;;;;4978390;28;20711;-69
2023/02/11 06:23:22;;;;;;;36.60;15.00;;;2.30;99.90;;;;;;4978850;28;20188;-71
2023/02/11 06:25:50;;;;;;;37.40;15.23;;;2.20;99.90;;;;;;4995840;28;20300;-69
2023/02/11 06:28:18;;;;;;;31.23;14.23;;;2.30;99.90;;;;;;4994678;28;20202;-70
2023/02/11 06:30:45;;;;;;;31.43;14.70;;;2.30;99.90;;;;;;4995394;28;20204;-70
2023/02/11 06:33:12;;;;;;;31.47;14.93;;;2.40;99.90;;;;;;4995851;28;20197;-70
2023/02/11 06:35:40;;;;;;;35.17;15.60;;;2.40;99.90;;;;;;4978074;28;20201;-71
2023/02/11 06:38:13;;;;;;;33.63;15.33;;;2.40;99.90;;;;;;4962956;28;20240;-70
2023/02/11 06:40:40;;;;;;;33.23;15.17;;;2.40;99.90;;;;;;4978100;28;20227;-71
2023/02/11 06:43:07;;;;;;;34.47;15.03;;;2.40;99.90;;;;;;4994537;28;20249;-71
2023/02/11 06:45:34;;;;;;;33.87;16.43;;;2.30;99.90;;;;;;4995273;28;20193;-71
2023/02/11 06:48:01;;;;;;;34.00;15.53;;;2.30;99.90;;;;;;4977946;28;20265;-71
2023/02/11 06:50:28;;;;;;;35.87;16.07;;;2.30;99.90;;;;;;4977973;28;20232;-70
2023/02/11 06:52:54;;;;;;;38.13;16.37;;;2.40;99.90;;;;;;4977128;28;20207;-70
2023/02/11 06:55:21;;;;;;;37.10;16.57;;;2.40;99.90;;;;;;4990451;28;20205;-70
2023/02/11 06:57:48;;;;;;;36.10;16.67;;;2.40;99.90;;;;;;4994370;28;20563;-71
2023/02/11 07:00:15;;;;;;;36.30;15.77;;;2.50;99.90;;;;;;4993555;28;20236;-70
2023/02/11 07:02:42;;;;;;;38.57;16.60;;;2.50;99.90;;;;;;4994063;28;20524;-70
2023/02/11 07:05:09;;;;;;;34.93;15.90;;;2.40;99.90;;;;;;4993822;28;20991;-70
2023/02/11 07:07:37;;;;;;;40.03;16.47;;;2.50;99.90;;;;;;4995135;28;20222;-72
2023/02/11 07:10:04;;;;;;;34.20;16.63;;;2.50;99.90;;;;;;4995039;28;20211;-70
2023/02/11 07:12:31;;;;;;;39.33;16.00;;;2.50;99.90;;;;;;4995080;28;20642;-70
2023/02/11 07:15:01;;;;;;;39.13;17.53;;;2.50;99.90;;;;;;4993433;28;20200;-71
2023/02/11 07:17:28;;;;;;;35.73;17.10;;;2.50;99.90;;;;;;4977462;28;20253;-70
2023/02/11 07:19:55;;;;;;;37.77;18.00;;;2.50;99.90;;;;;;4998322;28;20228;-71
2023/02/11 07:22:22;;;;;;;40.50;17.87;;;2.50;99.90;;;;;;5014344;28;20646;-71
2023/02/11 07:24:49;;;;;;;38.87;17.80;;;2.50;99.90;;;;;;4993874;28;20205;-71
2023/02/11 07:27:16;;;;;;;40.97;18.27;;;2.50;99.90;;;;;;5014333;28;20196;-71
2023/02/11 07:29:44;;;;;;;37.13;17.87;;;2.40;99.90;;;;;;4979249;28;20570;-71
2023/02/11 07:32:12;;;;;;;39.47;16.93;;;2.30;99.90;;;;;;4977117;28;20197;-69
2023/02/11 07:34:39;;;;;;;38.23;17.13;;;2.30;99.90;;;;;;4993389;28;20239;-70
2023/02/11 07:37:06;;;;;;;38.17;18.37;;;2.40;99.90;;;;;;4994670;28;20220;-70
2023/02/11 07:39:33;;;;;;;39.03;17.93;;;2.40;99.90;;;;;;4961014;28;20193;-70
2023/02/11 07:42:00;;;;;;;39.93;18.40;;;2.40;99.90;;;;;;4992320;28;20208;-71
2023/02/11 07:44:27;;;;;;;39.83;18.83;;;2.30;99.90;;;;;;4976970;28;20219;-71
2023/02/11 07:46:54;;;;;;;42.03;19.27;;;2.20;99.90;;;;;;4999082;28;20196;-70
2023/02/11 07:49:21;;;;;;;46.37;20.17;;;2.20;99.90;;;;;;4987425;28;20299;-70
2023/02/11 07:51:49;;;;;;;42.87;20.03;;;2.10;99.90;;;;;;4995796;28;20197;-70
2023/02/11 07:54:16;;;;;;;42.90;19.23;;;2.10;99.90;;;;;;4996103;28;20203;-69
2023/02/11 07:56:43;;;;;;;43.77;20.63;;;2.00;99.90;;;;;;4995683;28;20293;-69
2023/02/11 07:59:11;;;;;;;48.53;20.83;;;1.90;99.90;;;;;;5013610;28;20684;-69
2023/02/11 08:01:39;;;;;;;47.63;20.77;;;1.90;99.90;;;;;;5013535;28;20207;-68
2023/02/11 08:04:06;;;;;;;50.60;21.67;;;2.00;99.90;;;;;;5012982;28;20721;-67
2023/02/11 08:06:34;;;;;;;49.63;21.07;;;2.00;99.90;;;;;;4995494;28;20200;-68
2023/02/11 08:09:06;;;;;;;50.27;21.37;;;2.00;99.90;;;;;;4995747;28;20304;-68
2023/02/11 08:11:34;;;;;;;44.50;20.60;;;2.00;99.90;;;;;;4995786;28;20199;-68
2023/02/11 08:14:01;;;;;;;53.50;22.20;;;2.00;99.90;;;;;;4995415;28;20558;-70
2023/02/11 08:16:34;;;;;;;50.67;21.97;;;1.90;99.90;;;;;;5013380;28;20207;-70
2023/02/11 08:19:05;;;;;;;57.90;23.67;;;1.90;99.90;;;;;;4995804;28;20251;-70
2023/02/11 08:21:32;;;;;;;52.83;22.30;;;1.80;99.90;;;;;;4990369;28;20702;-70
2023/02/11 08:24:01;;;;;;;59.50;24.30;;;1.80;99.90;;;;;;4976821;28;20191;-69
2023/02/11 08:26:31;;;;;;;55.50;23.13;;;1.70;99.90;;;;;;4976219;28;20292;-68
2023/02/11 08:28:59;;;;;;;58.43;24.63;;;1.70;99.90;;;;;;4976433;28;20244;-71
2023/02/11 08:31:33;;;;;;;55.30;23.50;;;1.60;99.90;;;;;;4993456;28;20207;-69
2023/02/11 08:34:03;;;;;;;63.07;25.30;;;1.60;99.90;;;;;;4976157;28;20197;-70
2023/02/11 08:36:34;;;;;;;62.03;24.50;;;1.60;99.90;;;;;;4992109;28;20197;-69
2023/02/11 08:39:04;;;;;;;61.97;25.03;;;1.50;99.90;;;;;;4993204;28;20550;-68
2023/02/11 08:41:51;;;;;;;63.60;26.03;;;1.50;99.90;;;;;;4975788;28;20777;-69
2023/02/11 08:44:20;;;;;;;65.10;25.33;;;1.50;99.90;;;;;;4975843;28;20205;-67
2023/02/11 08:46:47;;;;;;;60.10;25.63;;;1.50;99.90;;;;;;4993231;28;20219;-69
2023/02/11 08:49:14;;;;;;;58.97;26.00;;;1.40;99.90;;;;;;4975550;28;20201;-72
2023/02/11 08:51:41;;;;;;;62.27;26.27;;;1.40;99.90;;;;;;4975721;28;20196;-68
2023/02/11 08:54:08;;;;;;;67.80;26.27;;;1.50;99.90;;;;;;4992923;28;20280;-68
2023/02/11 08:56:37;;;;;;;73.53;27.07;;;1.50;99.90;;;;;;4993248;28;20558;-69
2023/02/11 08:59:05;;;;;;;71.00;28.07;;;1.50;99.90;;;;;;4975399;28;20336;-71
2023/02/11 09:01:35;;;;;;;65.37;27.17;;;1.50;99.90;;;;;;4991515;28;20319;-68
2023/02/11 09:04:03;;;;;;;68.23;27.43;;;1.50;99.90;;;;;;4991709;28;20204;-69
2023/02/11 09:06:31;;;;;;;66.23;27.90;;;1.50;99.90;;;;;;4991725;28;20215;-69
2023/02/11 09:08:58;;;;;;;65.37;27.67;;;1.60;99.90;;;;;;4993613;28;20218;-71
2023/02/11 09:11:34;;;;;;;66.87;28.07;;;1.60;99.90;;;;;;4992940;28;20193;-67
2023/02/11 09:14:02;;;;;;;68.43;27.47;;;1.60;99.90;;;;;;4992433;28;20231;-70
2023/02/11 09:16:31;;;;;;;65.80;27.27;;;1.70;99.90;;;;;;4974896;28;20683;-71
2023/02/11 09:19:00;;;;;;;64.87;27.43;;;1.70;99.90;;;;;;4975221;28;20193;-73
2023/02/11 09:21:28;;;;;;;72.07;27.87;;;1.70;99.90;;;;;;4994527;28;20234;-69
2023/02/11 09:23:55;;;;;;;61.43;27.07;;;1.70;99.90;;;;;;4976929;28;20207;-70
2023/02/11 09:26:26;;;;;;;59.93;25.73;;;1.80;99.90;;;;;;4976273;28;20200;-69
2023/02/11 09:28:53;;;;;;;60.03;26.30;;;1.80;99.90;;;;;;4992730;28;20201;-71
2023/02/11 09:31:22;;;;;;;62.30;26.07;;;1.90;99.90;;;;;;4975364;28;20321;-71
2023/02/11 09:33:52;;;;;;;58.20;25.70;;;1.90;99.90;;;;;;4975509;28;20661;-69
2023/02/11 09:36:22;;;;;;;55.73;24.83;;;2.00;99.90;;;;;;4993015;28;20243;-69
2023/02/11 09:38:53;;;;;;;54.03;24.90;;;2.00;99.90;;;;;;4975182;28;20639;-69
2023/02/11 09:41:51;;;;;;;59.57;25.87;;;2.10;99.90;;;;;;4975279;28;20271;-69
2023/02/11 09:44:22;;;;;;;58.40;24.83;;;2.10;99.90;;;;;;4975166;28;20256;-72
2023/02/11 09:47:00;;;;;;;54.10;25.17;;;2.10;99.90;;;;;;4975259;28;20301;-72
2023/02/11 09:49:41;;;;;;;56.07;23.83;;;2.10;99.90;;;;;;4975151;28;20213;-72
2023/02/11 09:52:14;;;;;;;54.63;23.90;;;2.20;99.90;;;;;;4992471;28;20196;-73
2023/02/11 09:54:56;;;;;;;55.03;24.50;;;2.20;99.90;;;;;;4975005;28;20205;-72
2023/02/11 09:57:33;;;;;;;58.03;24.43;;;2.30;99.90;;;;;;4991170;28;20596;-72
2023/02/11 10:00:01;;;;;;;60.97;25.60;;;2.30;99.90;;;;;;4974684;28;20204;-72
2023/02/11 10:02:43;;;;;;;57.37;24.17;;;2.30;99.90;;;;;;4974930;28;20260;-72
2023/02/11 10:05:35;;;;;;;59.93;25.23;;;2.20;99.90;;;;;;4991149;28;20232;-71
2023/02/11 10:08:12;;;;;;;63.53;26.37;;;2.20;99.90;;;;;;4974462;28;20309;-72
2023/02/11 10:10:52;;;;;;;64.10;26.97;;;2.20;99.90;;;;;;4974924;28;20540;-71
2023/02/11 10:13:50;;;;;;;67.67;27.40;;;2.10;99.90;;;;;;4992523;28;20208;-71
2023/02/11 10:16:25;;;;;;;64.23;28.07;;;2.10;99.90;;;;;;4983979;28;20200;-71
2023/02/11 10:19:17;;;;;;;62.07;26.10;;;2.10;99.90;;;;;;4994083;28;20203;-72
2023/02/11 10:21:57;;;;;;;65.33;26.73;;;2.10;99.90;;;;;;4994013;28;20236;-71
2023/02/11 10:24:27;;;;;;;64.37;26.77;;;2.10;99.90;;;;;;4977172;28;20211;-71
2023/02/11 10:26:54;;;;;;;69.50;27.87;;;2.20;99.90;;;;;;4990736;28;20199;-70
2023/02/11 10:29:37;;;;;;;65.57;27.13;;;2.20;99.90;;;;;;4977332;28;20205;-71
2023/02/11 10:32:14;;;;;;;62.67;26.17;;;2.10;99.90;;;;;;4994411;28;20212;-71
2023/02/11 10:34:41;;;;;;;66.37;27.53;;;2.10;99.90;;;;;;4997309;28;20199;-71
2023/02/11 10:37:12;;;;;;;64.97;25.97;;;2.10;99.90;;;;;;4997495;28;20196;-70
2023/02/11 10:39:40;;;;;;;73.97;28.17;;;2.10;99.90;;;;;;4997523;28;20203;-72
2023/02/11 10:42:11;;;;;;;62.17;26.30;;;2.20;99.90;;;;;;5010532;28;20217;-71
2023/02/11 10:44:45;;;;;;;63.10;26.90;;;2.10;99.90;;;;;;4994086;28;20228;-71
2023/02/11 10:47:21;;;;;;;66.30;28.07;;;2.10;99.90;;;;;;4994050;28;20639;-71
2023/02/11 10:49:48;;;;;;;60.63;25.70;;;2.10;99.90;;;;;;4978124;28;20654;-72
2023/02/11 10:52:24;;;;;;;62.90;26.63;;;2.10;99.90;;;;;;4995279;28;20288;-72
2023/02/11 10:55:13;;;;;;;59.67;27.13;;;2.20;99.90;;;;;;4977642;28;20205;-71
2023/02/11 10:57:59;;;;;;;67.63;27.17;;;2.20;99.90;;;;;;4977644;28;20200;-71
2023/02/11 11:00:39;;;;;;;64.40;26.57;;;2.20;99.90;;;;;;4977654;28;20311;-70
2023/02/11 11:03:19;;;;;;;60.87;25.57;;;2.20;99.90;;;;;;4995236;28;20664;-70
2023/02/11 11:05:54;;;;;;;59.07;26.03;;;2.20;99.90;;;;;;4995018;28;20197;-70
2023/02/11 11:08:45;;;;;;;69.87;27.13;;;2.30;99.90;;;;;;4993780;28;20221;-70
2023/02/11 11:11:19;;;;;;;64.97;28.57;;;2.30;99.90;;;;;;4987464;28;20208;-70
2023/02/11 11:13:53;;;;;;;66.33;26.63;;;2.30;99.90;;;;;;4997037;28;20195;-70
2023/02/11 11:16:37;;;;;;;65.77;27.77;;;2.30;99.90;;;;;;5014533;28;20200;-71
2023/02/11 11:19:07;;;;;;;64.00;26.80;;;2.40;99.90;;;;;;4994656;28;20192;-70
2023/02/11 11:21:34;;;;;;;69.43;28.40;;;2.40;99.90;;;;;;4960360;28;20243;-71
2023/02/11 11:24:02;;;;;;;68.93;28.33;;;2.50;99.90;;;;;;4975359;28;20231;-71
2023/02/11 11:26:45;;;;;;;73.13;27.87;;;2.50;99.90;;;;;;4958059;28;20232;-70
2023/02/11 11:29:27;;;;;;;77.90;29.80;;;2.50;99.90;;;;;;4957675;28;20541;-71
2023/02/11 11:31:58;;;;;;;71.40;29.23;;;2.50;99.90;;;;;;4957584;28;20200;-70
2023/02/11 11:34:28;;;;;;;76.63;30.20;;;2.50;99.90;;;;;;4957610;28;20221;-71
2023/02/11 11:36:57;;;;;;;75.53;29.10;;;2.50;99.90;;;;;;4973663;28;20248;-73
2023/02/11 11:39:27;;;;;;;75.40;28.50;;;2.60;99.90;;;;;;4957320;28;20197;-72
2023/02/11 11:42:00;;;;;;;80.00;29.77;;;2.60;99.90;;;;;;4957447;28;20237;-72
2023/02/11 11:44:32;;;;;;;79.63;31.20;;;2.60;99.90;;;;;;4957419;28;20200;-73
2023/02/11 11:47:11;;;;;;;78.23;29.87;;;2.60;99.90;;;;;;4974584;28;20193;-73
2023/02/11 11:49:59;;;;;;;76.87;29.80;;;2.70;99.90;;;;;;4957611;28;20391;-73
2023/02/11 11:52:41;;;;;;;75.77;29.80;;;2.70;99.90;;;;;;4974579;28;20656;-73
2023/02/11 11:55:15;;;;;;;79.10;32.30;;;2.70;99.90;;;;;;4957443;28;20197;-71
2023/02/11 11:57:42;;;;;;;79.97;29.90;;;2.70;99.90;;;;;;4957504;28;20204;-71
2023/02/11 12:00:16;;;;;;;89.03;31.87;;;2.70;99.90;;;;;;4957088;28;20213;-73
2023/02/11 12:02:55;;;;;;;85.00;31.60;;;2.80;99.90;;;;;;4956652;28;20231;-72
2023/02/11 12:05:34;;;;;;;84.47;32.17;;;2.80;99.90;;;;;;4957063;28;20300;-75
2023/02/11 12:08:16;;;;;;;87.30;31.33;;;2.80;99.90;;;;;;4956647;28;20213;-80
2023/02/11 12:11:08;;;;;;;84.30;31.50;;;2.80;99.90;;;;;;4973532;28;20193;-77
2023/02/11 12:13:58;;;;;;;84.17;30.73;;;2.80;99.90;;;;;;4961107;28;20200;-76
2023/02/11 12:16:52;;;;;;;83.57;30.73;;;2.90;99.90;;;;;;4974085;28;20216;-75
2023/02/11 12:19:58;;;;;;;81.53;31.20;;;2.90;99.90;;;;;;4974399;28;20619;-73
2023/02/11 12:22:51;;;;;;;88.43;31.63;;;2.90;99.90;;;;;;4969645;28;20230;-75
2023/02/11 12:25:29;;;;;;;81.70;30.00;;;3.00;99.90;;;;;;4953471;29;20204;-74
2023/02/11 12:28:24;;;;;;;77.23;29.90;;;3.00;99.90;;;;;;4953331;29;20226;-71
2023/02/11 12:31:18;;;;;;;84.27;29.93;;;3.00;99.90;;;;;;4969441;28;20207;-73
2023/02/11 12:34:13;;;;;;;79.10;30.23;;;3.10;99.90;;;;;;4953760;29;20219;-73
2023/02/11 12:37:06;;;;;;;84.97;30.33;;;3.10;99.90;;;;;;4937798;29;20633;-74
2023/02/11 12:39:36;;;;;;;76.43;30.20;;;3.10;99.90;;;;;;4937328;29;20237;-73
2023/02/11 12:45:11;;;;;;;76.10;29.00;;;3.20;99.90;;;;;;4955967;28;20190;-72
2023/02/11 12:47:57;;;;;;;83.63;29.27;;;3.20;99.90;;;;;;4972485;28;20201;-74
2023/02/11 12:51:08;;;;;;;73.77;29.07;;;3.30;99.90;;;;;;4972349;28;21783;-71
2023/02/11 12:53:53;;;;;;;74.90;29.43;;;3.30;99.90;;;;;;4961736;28;20305;-71
2023/02/11 12:56:27;;;;;;;76.97;28.93;;;3.40;99.90;;;;;;4936959;29;20713;-74
2023/02/11 12:58:57;;;;;;;73.40;28.97;;;3.40;99.90;;;;;;4955594;28;20541;-72
2023/02/11 13:01:38;;;;;;;72.87;28.43;;;3.40;99.90;;;;;;4971814;28;20562;-72
2023/02/11 13:04:15;;;;;;;67.47;27.83;;;3.40;99.90;;;;;;4956016;28;20660;-74
2023/02/11 13:06:58;;;;;;;73.33;27.90;;;3.50;99.90;;;;;;4956360;28;20214;-77